<?xml version="1.0" encoding="UTF-8"?><gpx xmlns="http://www.topografix.com/GPX/1/1"  creator="TraceDeTrail http://www.tracedetrail.fr" version="1.1" xmlns:xsi="http://www.w3.org/2001/XMLSchema-instance" xsi:schemaLocation="http://www.topografix.com/GPX/1/1 http://www.topografix.com/GPX/1/1/gpx.xsd "><metadata><name>Boucle à la journée de Chamrousse : l'Alpage</name><link href="http://tracedetrail.fr/fr/trace/trace/120070"><text>methode de calcul : astergdem </text></link></metadata><trk><name>Boucle à la journée de Chamrousse : l'Alpage sur TraceDeTrail.fr</name><trkseg><trkpt lat="45.12627" lon="5.87913"><ele>1676</ele><time>2000-01-01T01:40:23.000Z</time></trkpt><trkpt lat="45.12641" lon="5.87941"><ele>1679</ele><time>2000-01-01T01:40:33.000Z</time></trkpt><trkpt lat="45.12657" lon="5.87973"><ele>1681</ele><time>2000-01-01T01:40:43.000Z</time></trkpt><trkpt lat="45.12684" lon="5.87983"><ele>1690</ele><time>2000-01-01T01:40:53.000Z</time></trkpt><trkpt lat="45.12724" lon="5.87998"><ele>1701</ele><time>2000-01-01T01:41:03.000Z</time></trkpt><trkpt lat="45.12749" lon="5.88019"><ele>1714</ele><time>2000-01-01T01:41:13.000Z</time></trkpt><trkpt lat="45.12789" lon="5.88052"><ele>1727</ele><time>2000-01-01T01:41:23.000Z</time></trkpt><trkpt lat="45.12801" lon="5.88083"><ele>1734</ele><time>2000-01-01T01:41:33.000Z</time></trkpt><trkpt lat="45.12814" lon="5.88119"><ele>1741</ele><time>2000-01-01T01:41:43.000Z</time></trkpt><trkpt lat="45.12828" lon="5.88148"><ele>1742</ele><time>2000-01-01T01:41:53.000Z</time></trkpt><trkpt lat="45.12842" lon="5.88179"><ele>1744</ele><time>2000-01-01T01:42:03.000Z</time></trkpt><trkpt lat="45.12855" lon="5.88215"><ele>1764</ele><time>2000-01-01T01:42:13.000Z</time></trkpt><trkpt lat="45.12877" lon="5.88271"><ele>1771</ele><time>2000-01-01T01:42:23.000Z</time></trkpt><trkpt lat="45.12869" lon="5.88316"><ele>1773</ele><time>2000-01-01T01:42:33.000Z</time></trkpt><trkpt lat="45.12846" lon="5.8836"><ele>1781</ele><time>2000-01-01T01:42:43.000Z</time></trkpt><trkpt lat="45.12824" lon="5.88403"><ele>1785</ele><time>2000-01-01T01:42:53.000Z</time></trkpt><trkpt lat="45.12801" lon="5.88447"><ele>1793</ele><time>2000-01-01T01:43:03.000Z</time></trkpt><trkpt lat="45.12778" lon="5.8849"><ele>1804</ele><time>2000-01-01T01:43:13.000Z</time></trkpt><trkpt lat="45.12754" lon="5.88537"><ele>1810</ele><time>2000-01-01T01:43:23.000Z</time></trkpt><trkpt lat="45.12745" lon="5.88572"><ele>1818</ele><time>2000-01-01T01:43:33.000Z</time></trkpt><trkpt lat="45.12734" lon="5.88614"><ele>1820</ele><time>2000-01-01T01:43:43.000Z</time></trkpt><trkpt lat="45.12727" lon="5.88657"><ele>1823</ele><time>2000-01-01T01:43:53.000Z</time></trkpt><trkpt lat="45.12738" lon="5.88706"><ele>1826</ele><time>2000-01-01T01:44:03.000Z</time></trkpt><trkpt lat="45.12749" lon="5.88755"><ele>1827</ele><time>2000-01-01T01:44:13.000Z</time></trkpt><trkpt lat="45.1276" lon="5.88804"><ele>1828</ele><time>2000-01-01T01:44:23.000Z</time></trkpt><trkpt lat="45.12774" lon="5.88865"><ele>1829</ele><time>2000-01-01T01:44:33.000Z</time></trkpt><trkpt lat="45.12757" lon="5.88895"><ele>1832</ele><time>2000-01-01T01:44:43.000Z</time></trkpt><trkpt lat="45.12736" lon="5.88932"><ele>1836</ele><time>2000-01-01T01:44:53.000Z</time></trkpt><trkpt lat="45.12705" lon="5.88975"><ele>1852</ele><time>2000-01-01T01:45:03.000Z</time></trkpt><trkpt lat="45.12713" lon="5.89023"><ele>1866</ele><time>2000-01-01T01:45:13.000Z</time></trkpt><trkpt lat="45.1272" lon="5.89071"><ele>1876</ele><time>2000-01-01T01:45:23.000Z</time></trkpt><trkpt lat="45.12733" lon="5.89153"><ele>1888</ele><time>2000-01-01T01:45:33.000Z</time></trkpt><trkpt lat="45.12735" lon="5.89196"><ele>1905</ele><time>2000-01-01T01:45:43.000Z</time></trkpt><trkpt lat="45.1274" lon="5.89271"><ele>1922</ele><time>2000-01-01T01:45:53.000Z</time></trkpt><trkpt lat="45.12728" lon="5.89318"><ele>1927</ele><time>2000-01-01T01:46:03.000Z</time></trkpt><trkpt lat="45.12748" lon="5.8935"><ele>1934</ele><time>2000-01-01T01:46:13.000Z</time></trkpt><trkpt lat="45.12781" lon="5.89404"><ele>1941</ele><time>2000-01-01T01:46:23.000Z</time></trkpt><trkpt lat="45.12788" lon="5.8944"><ele>1944</ele><time>2000-01-01T01:46:33.000Z</time></trkpt><trkpt lat="45.12796" lon="5.89485"><ele>1944</ele><time>2000-01-01T01:46:43.000Z</time></trkpt><trkpt lat="45.12802" lon="5.89521"><ele>1944</ele><time>2000-01-01T01:46:53.000Z</time></trkpt><trkpt lat="45.12808" lon="5.89565"><ele>1944</ele><time>2000-01-01T01:47:03.000Z</time></trkpt><trkpt lat="45.1284" lon="5.89608"><ele>1953</ele><time>2000-01-01T01:47:13.000Z</time></trkpt><trkpt lat="45.12858" lon="5.8967"><ele>1963</ele><time>2000-01-01T01:47:23.000Z</time></trkpt><trkpt lat="45.1288" lon="5.89705"><ele>1966</ele><time>2000-01-01T01:47:33.000Z</time></trkpt><trkpt lat="45.12902" lon="5.89741"><ele>1967</ele><time>2000-01-01T01:47:43.000Z</time></trkpt><trkpt lat="45.1293" lon="5.89786"><ele>1964</ele><time>2000-01-01T01:47:53.000Z</time></trkpt><trkpt lat="45.12947" lon="5.8983"><ele>1962</ele><time>2000-01-01T01:48:03.000Z</time></trkpt><trkpt lat="45.12965" lon="5.89873"><ele>1961</ele><time>2000-01-01T01:48:13.000Z</time></trkpt><trkpt lat="45.12999" lon="5.89958"><ele>1967</ele><time>2000-01-01T01:48:23.000Z</time></trkpt><trkpt lat="45.13005" lon="5.89999"><ele>1974</ele><time>2000-01-01T01:48:33.000Z</time></trkpt><trkpt lat="45.13014" lon="5.90067"><ele>1976</ele><time>2000-01-01T01:48:43.000Z</time></trkpt><trkpt lat="45.13011" lon="5.90107"><ele>1986</ele><time>2000-01-01T01:48:53.000Z</time></trkpt><trkpt lat="45.13005" lon="5.90168"><ele>1993</ele><time>2000-01-01T01:49:03.000Z</time></trkpt><trkpt lat="45.13013" lon="5.90211"><ele>1989</ele><time>2000-01-01T01:49:13.000Z</time></trkpt><trkpt lat="45.13035" lon="5.90242"><ele>1992</ele><time>2000-01-01T01:49:23.000Z</time></trkpt><trkpt lat="45.13076" lon="5.90303"><ele>1996</ele><time>2000-01-01T01:49:33.000Z</time></trkpt><trkpt lat="45.13088" lon="5.9035"><ele>2010</ele><time>2000-01-01T01:49:43.000Z</time></trkpt><trkpt lat="45.13104" lon="5.90378"><ele>2025</ele><time>2000-01-01T01:49:53.000Z</time></trkpt><trkpt lat="45.13104" lon="5.90421"><ele>2036</ele><time>2000-01-01T01:50:03.000Z</time></trkpt><trkpt lat="45.1312" lon="5.90438"><ele>2036</ele><time>2000-01-01T01:50:13.000Z</time></trkpt><trkpt lat="45.13117" lon="5.90488"><ele>2031</ele><time>2000-01-01T01:50:23.000Z</time></trkpt><trkpt lat="45.13131" lon="5.90543"><ele>2036</ele><time>2000-01-01T01:50:33.000Z</time></trkpt><trkpt lat="45.13148" lon="5.90554"><time>2000-01-01T01:50:43.000Z</time></trkpt><trkpt lat="45.13143" lon="5.90593"><ele>2037</ele><time>2000-01-01T01:50:53.000Z</time></trkpt><trkpt lat="45.13164" lon="5.90629"><ele>2039</ele><time>2000-01-01T01:51:03.000Z</time></trkpt><trkpt lat="45.13151" lon="5.90661"><ele>2065</ele><time>2000-01-01T01:51:13.000Z</time></trkpt><trkpt lat="45.13153" lon="5.90704"><ele>2075</ele><time>2000-01-01T01:51:23.000Z</time></trkpt><trkpt lat="45.13158" lon="5.90782"><ele>2061</ele><time>2000-01-01T01:51:33.000Z</time></trkpt><trkpt lat="45.13173" lon="5.90816"><ele>2047</ele><time>2000-01-01T01:51:43.000Z</time></trkpt><trkpt lat="45.13179" lon="5.90854"><ele>2047</ele><time>2000-01-01T01:51:53.000Z</time></trkpt><trkpt lat="45.13187" lon="5.90906"><ele>2048</ele><time>2000-01-01T01:52:03.000Z</time></trkpt><trkpt lat="45.13184" lon="5.90946"><ele>2047</ele><time>2000-01-01T01:52:13.000Z</time></trkpt><trkpt lat="45.13181" lon="5.91003"><ele>2046</ele><time>2000-01-01T01:52:23.000Z</time></trkpt><trkpt lat="45.13194" lon="5.91045"><ele>2037</ele><time>2000-01-01T01:52:33.000Z</time></trkpt><trkpt lat="45.1319" lon="5.91095"><ele>2029</ele><time>2000-01-01T01:52:43.000Z</time></trkpt><trkpt lat="45.13173" lon="5.91133"><ele>2023</ele><time>2000-01-01T01:52:53.000Z</time></trkpt><trkpt lat="45.13156" lon="5.91171"><ele>2017</ele><time>2000-01-01T01:53:03.000Z</time></trkpt><trkpt lat="45.13138" lon="5.91211"><ele>2012</ele><time>2000-01-01T01:53:13.000Z</time></trkpt><trkpt lat="45.13113" lon="5.91211"><ele>2012</ele><time>2000-01-01T01:53:23.000Z</time></trkpt><trkpt lat="45.13075" lon="5.91241"><ele>2012</ele><time>2000-01-01T01:53:33.000Z</time></trkpt><trkpt lat="45.13054" lon="5.91299"><ele>2013</ele><time>2000-01-01T01:53:43.000Z</time></trkpt><trkpt lat="45.13049" lon="5.91332"><ele>2015</ele><time>2000-01-01T01:53:53.000Z</time></trkpt><trkpt lat="45.13045" lon="5.91367"><ele>2015</ele><time>2000-01-01T01:54:03.000Z</time></trkpt><trkpt lat="45.13044" lon="5.91402"><ele>2015</ele><time>2000-01-01T01:54:13.000Z</time></trkpt><trkpt lat="45.13043" lon="5.91438"><ele>2017</ele><time>2000-01-01T01:54:23.000Z</time></trkpt><trkpt lat="45.13046" lon="5.915"><ele>2013</ele><time>2000-01-01T01:54:33.000Z</time></trkpt><trkpt lat="45.13053" lon="5.91534"><ele>2013</ele><time>2000-01-01T01:54:43.000Z</time></trkpt><trkpt lat="45.13061" lon="5.91571"><ele>2013</ele><time>2000-01-01T01:54:53.000Z</time></trkpt><trkpt lat="45.13066" lon="5.91607"><ele>2010</ele><time>2000-01-01T01:55:03.000Z</time></trkpt><trkpt lat="45.13072" lon="5.91648"><ele>2008</ele><time>2000-01-01T01:55:13.000Z</time></trkpt><trkpt lat="45.13093" lon="5.91681"><ele>2009</ele><time>2000-01-01T01:55:23.000Z</time></trkpt><trkpt lat="45.13087" lon="5.91706"><ele>2010</ele><time>2000-01-01T01:55:33.000Z</time></trkpt><trkpt lat="45.13114" lon="5.91713"><ele>2009</ele><time>2000-01-01T01:55:43.000Z</time></trkpt><trkpt lat="45.13151" lon="5.917"><ele>2009</ele><time>2000-01-01T01:55:53.000Z</time></trkpt><trkpt lat="45.13184" lon="5.9173"><ele>2009</ele><time>2000-01-01T01:56:03.000Z</time></trkpt><trkpt lat="45.13201" lon="5.91702"><ele>2009</ele><time>2000-01-01T01:56:13.000Z</time></trkpt><trkpt lat="45.1322" lon="5.91724"><ele>2009</ele><time>2000-01-01T01:56:23.000Z</time></trkpt><trkpt lat="45.13264" lon="5.91719"><ele>2014</ele><time>2000-01-01T01:56:33.000Z</time></trkpt><trkpt lat="45.13276" lon="5.91685"><ele>2019</ele><time>2000-01-01T01:56:43.000Z</time></trkpt><trkpt lat="45.13313" lon="5.91672"><ele>2021</ele><time>2000-01-01T01:56:53.000Z</time></trkpt><trkpt lat="45.13322" lon="5.9164"><ele>2023</ele><time>2000-01-01T01:57:03.000Z</time></trkpt><trkpt lat="45.1335" lon="5.9164"><ele>2026</ele><time>2000-01-01T01:57:13.000Z</time></trkpt><trkpt lat="45.13363" lon="5.91584"><ele>2023</ele><time>2000-01-01T01:57:23.000Z</time></trkpt><trkpt lat="45.13375" lon="5.91552"><ele>2029</ele><time>2000-01-01T01:57:33.000Z</time></trkpt><trkpt lat="45.1339" lon="5.91513"><ele>2032</ele><time>2000-01-01T01:57:43.000Z</time></trkpt><trkpt lat="45.13387" lon="5.9147"><ele>2035</ele><time>2000-01-01T01:57:53.000Z</time></trkpt><trkpt lat="45.13411" lon="5.91419"><ele>2035</ele><time>2000-01-01T01:58:03.000Z</time></trkpt><trkpt lat="45.13405" lon="5.91374"><ele>2036</ele><time>2000-01-01T01:58:13.000Z</time></trkpt><trkpt lat="45.13425" lon="5.91354"><ele>2049</ele><time>2000-01-01T01:58:23.000Z</time></trkpt><trkpt lat="45.1344" lon="5.91325"><ele>2055</ele><time>2000-01-01T01:58:33.000Z</time></trkpt><trkpt lat="45.13459" lon="5.91288"><ele>2049</ele><time>2000-01-01T01:58:43.000Z</time></trkpt><trkpt lat="45.13482" lon="5.91258"><ele>2044</ele><time>2000-01-01T01:58:53.000Z</time></trkpt><trkpt lat="45.13486" lon="5.91224"><ele>2036</ele><time>2000-01-01T01:59:03.000Z</time></trkpt><trkpt lat="45.13491" lon="5.91187"><ele>2006</ele><time>2000-01-01T01:59:13.000Z</time></trkpt><trkpt lat="45.1349" lon="5.9114"><ele>2004</ele><time>2000-01-01T01:59:23.000Z</time></trkpt><trkpt lat="45.13479" lon="5.91103"><ele>1996</ele><time>2000-01-01T01:59:33.000Z</time></trkpt><trkpt lat="45.13487" lon="5.91069"><ele>1971</ele><time>2000-01-01T01:59:43.000Z</time></trkpt><trkpt lat="45.13497" lon="5.9103"><ele>1957</ele><time>2000-01-01T01:59:53.000Z</time></trkpt><trkpt lat="45.13485" lon="5.90966"><ele>1936</ele><time>2000-01-01T02:00:03.000Z</time></trkpt><trkpt lat="45.13461" lon="5.90947"><ele>1927</ele><time>2000-01-01T02:00:13.000Z</time></trkpt><trkpt lat="45.13465" lon="5.90915"><ele>1922</ele><time>2000-01-01T02:00:23.000Z</time></trkpt><trkpt lat="45.13443" lon="5.90895"><ele>1920</ele><time>2000-01-01T02:00:33.000Z</time></trkpt><trkpt lat="45.13455" lon="5.90842"><ele>1910</ele><time>2000-01-01T02:00:43.000Z</time></trkpt><trkpt lat="45.13451" lon="5.90808"><ele>1908</ele><time>2000-01-01T02:00:53.000Z</time></trkpt><trkpt lat="45.13447" lon="5.90775"><ele>1906</ele><time>2000-01-01T02:01:03.000Z</time></trkpt><trkpt lat="45.13444" lon="5.9074"><ele>1902</ele><time>2000-01-01T02:01:13.000Z</time></trkpt><trkpt lat="45.1344" lon="5.907"><ele>1891</ele><time>2000-01-01T02:01:23.000Z</time></trkpt><trkpt lat="45.13425" lon="5.90683"><ele>1885</ele><time>2000-01-01T02:01:33.000Z</time></trkpt><trkpt lat="45.13426" lon="5.9064"><ele>1883</ele><time>2000-01-01T02:01:43.000Z</time></trkpt><trkpt lat="45.13439" lon="5.90608"><ele>1882</ele><time>2000-01-01T02:01:53.000Z</time></trkpt><trkpt lat="45.13456" lon="5.90567"><ele>1865</ele><time>2000-01-01T02:02:03.000Z</time></trkpt><trkpt lat="45.13454" lon="5.90532"><ele>1859</ele><time>2000-01-01T02:02:13.000Z</time></trkpt><trkpt lat="45.13452" lon="5.90494"><ele>1853</ele><time>2000-01-01T02:02:23.000Z</time></trkpt><trkpt lat="45.13463" lon="5.9046"><ele>1839</ele><time>2000-01-01T02:02:33.000Z</time></trkpt><trkpt lat="45.13476" lon="5.90419"><ele>1818</ele><time>2000-01-01T02:02:43.000Z</time></trkpt><trkpt lat="45.13479" lon="5.90382"><ele>1812</ele><time>2000-01-01T02:02:53.000Z</time></trkpt><trkpt lat="45.13484" lon="5.90335"><ele>1811</ele><time>2000-01-01T02:03:03.000Z</time></trkpt><trkpt lat="45.13479" lon="5.90297"><ele>1811</ele><time>2000-01-01T02:03:13.000Z</time></trkpt><trkpt lat="45.13484" lon="5.90239"><ele>1808</ele><time>2000-01-01T02:03:23.000Z</time></trkpt><trkpt lat="45.13508" lon="5.90222"><ele>1807</ele><time>2000-01-01T02:03:33.000Z</time></trkpt><trkpt lat="45.13521" lon="5.90193"><ele>1802</ele><time>2000-01-01T02:03:43.000Z</time></trkpt><trkpt lat="45.13535" lon="5.90164"><ele>1794</ele><time>2000-01-01T02:03:53.000Z</time></trkpt><trkpt lat="45.13552" lon="5.90129"><ele>1775</ele><time>2000-01-01T02:04:03.000Z</time></trkpt><trkpt lat="45.13558" lon="5.90093"><ele>1772</ele><time>2000-01-01T02:04:13.000Z</time></trkpt><trkpt lat="45.13543" lon="5.90037"><ele>1762</ele><time>2000-01-01T02:04:23.000Z</time></trkpt><trkpt lat="45.13521" lon="5.90005"><ele>1763</ele><time>2000-01-01T02:04:33.000Z</time></trkpt><trkpt lat="45.13537" lon="5.8997"><ele>1765</ele><time>2000-01-01T02:04:43.000Z</time></trkpt><trkpt lat="45.13561" lon="5.89915"><ele>1767</ele><time>2000-01-01T02:04:53.000Z</time></trkpt><trkpt lat="45.13547" lon="5.89879"><ele>1781</ele><time>2000-01-01T02:05:03.000Z</time></trkpt><trkpt lat="45.13526" lon="5.89825"><ele>1784</ele><time>2000-01-01T02:05:13.000Z</time></trkpt><trkpt lat="45.13512" lon="5.89794"><ele>1787</ele><time>2000-01-01T02:05:23.000Z</time></trkpt><trkpt lat="45.13494" lon="5.89756"><ele>1791</ele><time>2000-01-01T02:05:33.000Z</time></trkpt><trkpt lat="45.13481" lon="5.89725"><ele>1787</ele><time>2000-01-01T02:05:43.000Z</time></trkpt><trkpt lat="45.13467" lon="5.89689"><ele>1789</ele><time>2000-01-01T02:05:53.000Z</time></trkpt><trkpt lat="45.1344" lon="5.89657"><ele>1787</ele><time>2000-01-01T02:06:03.000Z</time></trkpt><trkpt lat="45.13437" lon="5.8961"><ele>1786</ele><time>2000-01-01T02:06:13.000Z</time></trkpt><trkpt lat="45.13417" lon="5.8958"><ele>1781</ele><time>2000-01-01T02:06:23.000Z</time></trkpt><trkpt lat="45.13387" lon="5.89533"><ele>1774</ele><time>2000-01-01T02:06:33.000Z</time></trkpt><trkpt lat="45.13364" lon="5.89509"><ele>1773</ele><time>2000-01-01T02:06:43.000Z</time></trkpt><trkpt lat="45.13331" lon="5.89475"><ele>1767</ele><time>2000-01-01T02:06:53.000Z</time></trkpt><trkpt lat="45.1332" lon="5.89432"><ele>1765</ele><time>2000-01-01T02:07:03.000Z</time></trkpt><trkpt lat="45.133" lon="5.89402"><ele>1766</ele><time>2000-01-01T02:07:13.000Z</time></trkpt><trkpt lat="45.13266" lon="5.89352"><ele>1758</ele><time>2000-01-01T02:07:23.000Z</time></trkpt><trkpt lat="45.13246" lon="5.89321"><ele>1751</ele><time>2000-01-01T02:07:33.000Z</time></trkpt><trkpt lat="45.13214" lon="5.89269"><ele>1753</ele><time>2000-01-01T02:07:43.000Z</time></trkpt><trkpt lat="45.13193" lon="5.89233"><ele>1755</ele><time>2000-01-01T02:07:53.000Z</time></trkpt><trkpt lat="45.13172" lon="5.89198"><ele>1758</ele><time>2000-01-01T02:08:03.000Z</time></trkpt><trkpt lat="45.13148" lon="5.89155"><ele>1762</ele><time>2000-01-01T02:08:13.000Z</time></trkpt><trkpt lat="45.13124" lon="5.89126"><ele>1765</ele><time>2000-01-01T02:08:23.000Z</time></trkpt><trkpt lat="45.13081" lon="5.89071"><ele>1765</ele><time>2000-01-01T02:08:33.000Z</time></trkpt><trkpt lat="45.13057" lon="5.89056"><ele>1765</ele><time>2000-01-01T02:08:43.000Z</time></trkpt><trkpt lat="45.13025" lon="5.89035"><ele>1762</ele><time>2000-01-01T02:08:53.000Z</time></trkpt><trkpt lat="45.13" lon="5.89012"><ele>1767</ele><time>2000-01-01T02:09:03.000Z</time></trkpt><trkpt lat="45.12958" lon="5.88973"><ele>1766</ele><time>2000-01-01T02:09:13.000Z</time></trkpt><trkpt lat="45.12946" lon="5.88928"><ele>1766</ele><time>2000-01-01T02:09:23.000Z</time></trkpt><trkpt lat="45.12951" lon="5.88893"><ele>1770</ele><time>2000-01-01T02:09:33.000Z</time></trkpt><trkpt lat="45.12957" lon="5.88855"><ele>1776</ele><time>2000-01-01T02:09:43.000Z</time></trkpt><trkpt lat="45.12963" lon="5.88818"><ele>1781</ele><time>2000-01-01T02:09:53.000Z</time></trkpt><trkpt lat="45.12972" lon="5.88769"><ele>1799</ele><time>2000-01-01T02:10:03.000Z</time></trkpt><trkpt lat="45.12989" lon="5.88738"><ele>1794</ele><time>2000-01-01T02:10:13.000Z</time></trkpt><trkpt lat="45.13011" lon="5.88698"><ele>1792</ele><time>2000-01-01T02:10:23.000Z</time></trkpt><trkpt lat="45.13011" lon="5.88662"><ele>1792</ele><time>2000-01-01T02:10:33.000Z</time></trkpt><trkpt lat="45.13011" lon="5.88619"><ele>1792</ele><time>2000-01-01T02:10:43.000Z</time></trkpt><trkpt lat="45.12992" lon="5.88577"><ele>1792</ele><time>2000-01-01T02:10:53.000Z</time></trkpt><trkpt lat="45.12972" lon="5.88536"><ele>1800</ele><time>2000-01-01T02:11:03.000Z</time></trkpt><trkpt lat="45.12937" lon="5.88462"><ele>1786</ele><time>2000-01-01T02:11:13.000Z</time></trkpt><trkpt lat="45.1292" lon="5.88464"><time>2000-01-01T02:11:23.000Z</time></trkpt><trkpt lat="45.12869" lon="5.88316"><ele>1773</ele><time>2000-01-01T02:11:33.000Z</time></trkpt><trkpt lat="45.12877" lon="5.88271"><ele>1771</ele><time>2000-01-01T02:11:43.000Z</time></trkpt><trkpt lat="45.12859" lon="5.88229"><ele>1764</ele><time>2000-01-01T02:11:53.000Z</time></trkpt><trkpt lat="45.12842" lon="5.88187"><ele>1744</ele><time>2000-01-01T02:12:03.000Z</time></trkpt><trkpt lat="45.12814" lon="5.88119"><ele>1743</ele><time>2000-01-01T02:12:13.000Z</time></trkpt><trkpt lat="45.12802" lon="5.88087"><ele>1743</ele><time>2000-01-01T02:12:23.000Z</time></trkpt><trkpt lat="45.12789" lon="5.88052"><ele>1727</ele><time>2000-01-01T02:12:33.000Z</time></trkpt><trkpt lat="45.12764" lon="5.88031"><ele>1712</ele><time>2000-01-01T02:12:43.000Z</time></trkpt><trkpt lat="45.12724" lon="5.87998"><ele>1701</ele><time>2000-01-01T02:12:53.000Z</time></trkpt><trkpt lat="45.12696" lon="5.87988"><ele>1696</ele><time>2000-01-01T02:13:03.000Z</time></trkpt><trkpt lat="45.12657" lon="5.87973"><ele>1681</ele><time>2000-01-01T02:13:13.000Z</time></trkpt><trkpt lat="45.12643" lon="5.87944"><ele>1679</ele><time>2000-01-01T02:13:23.000Z</time></trkpt><trkpt lat="45.12627" lon="5.87913"><ele>1676</ele><time>2000-01-01T02:13:33.000Z</time></trkpt><trkpt lat="45.12627" lon="5.87913"><ele>1676</ele><time>2000-01-01T02:13:43.000Z</time></trkpt></trkseg></trk></gpx>